ADDS METAR Data INFO
IDs: Format: Raw Decoded Include TAF

Data at: 0856 UTC 19 Jun 2018

KSUS 190854Z AUTO 23005KT 10SM CLR 26/21 A2997 RMK AO2 SLP138 T02560206 56009
KSUS 190754Z AUTO 21005KT 10SM CLR 26/21 A2998 RMK AO2 SLP140 T02610211
KSUS 190654Z AUTO 21004KT 10SM CLR 27/21 A2999 RMK AO2 SLP144 T02670211
KSUS 190554Z AUTO 22007KT 10SM CLR 28/21 A3000 RMK AO2 SLP147 T02780211 10328 20272 403560233 58001
KSUS 190454Z AUTO 20007KT 10SM CLR 28/22 A3001 RMK AO2 SLP150 T02780217
KSUS 190354Z 19006KT 10SM CLR 28/22 A3001 RMK AO2 SLP150 T02780217
KSUS 190254Z 19006KT 10SM CLR 28/22 A3000 RMK AO2 SLP148 T02830217 53025
KSUS 190154Z 19005KT 10SM CLR 29/22 A2997 RMK AO2 SLP138 T02890217
KSUS 190054Z 21005KT 10SM CLR 31/22 A2994 RMK AO2 SLP128 T03110217
KSUS 182354Z 21009KT 10SM CLR 33/22 A2993 RMK AO2 SLP123 T03280217 10356 20328 56017
KSUS 182254Z 22009G18KT 10SM SCT050 34/22 A2994 RMK AO2 SLP128 T03390222
KSUS 182154Z 22009G15KT 10SM SCT050 34/22 A2996 RMK AO2 SLP134 T03440222
KSUS 182054Z 18008KT 10SM SCT050TCU 34/22 A2998 RMK AO2 SLP140 T03440222 58018
KSUS 181954Z 23009KT 10SM SCT048 BKN075 34/23 A3000 RMK AO2 SLP146 T03440228
KSUS 181854Z 24007KT 200V270 10SM SCT050 35/22 A3001 RMK AO2 SLP151 T03500222
KSUS 181754Z VRB05KT 10SM SCT045 34/23 A3003 RMK AO2 SLP158 T03390228 10344 20267 58009
KSUS 181654Z 23007KT 10SM FEW045 33/23 A3005 RMK AO2 SLP166 T03280228
KSUS 181554Z 23009KT 10SM CLR 32/23 A3006 RMK AO2 SLP168 T03170228
KSUS 181454Z 25010KT 10SM CLR 31/23 A3006 RMK AO2 SLP169 T03110228 50006
KSUS 181354Z 23009KT 10SM CLR 29/22 A3007 RMK AO2 SLP171 T02940222
KSUS 181254Z 23008KT 10SM CLR 27/22 A3006 RMK AO2 SLP168 T02720222
KSUS 181154Z 24006KT 10SM FEW250 27/22 A3004 RMK AO2 SLP162 T02670217 10278 20233 51011
KSUS 181054Z 20005KT 10SM FEW250 25/22 A3004 RMK AO2 SLP160 T02500217
KSUS 180954Z AUTO 21004KT 10SM CLR 24/22 A3002 RMK AO2 SLP155 T02440217
KSUS 180854Z AUTO 00000KT 10SM CLR 26/22 A3001 RMK AO2 SLP151 T02560217 55002
KSUS 180754Z AUTO 18006KT 10SM CLR 27/22 A3000 RMK AO2 SLP147 T02670217
KSUS 180654Z AUTO 18006KT 10SM CLR 28/21 A3000 RMK AO2 SLP148 T02780211
KSUS 180554Z AUTO 20004KT 10SM CLR 28/22 A3002 RMK AO2 SLP153 T02780217 10333 20267 403560239 51007
KSUS 180454Z AUTO 21005KT 10SM CLR 28/22 A3002 RMK AO2 SLP153 T02830217
KSUS 180354Z 19005KT 10SM CLR 29/22 A3001 RMK AO2 SLP152 T02890222
KSUS 180254Z 21003KT 10SM CLR 27/23 A2999 RMK AO2 SLP147 T02720228 53009
KSUS 180154Z 16003KT 10SM CLR 29/23 A2997 RMK AO2 SLP140 T02890228
KSUS 180054Z 20003KT 10SM CLR 32/22 A2996 RMK AO2 SLP135 T03170222
KSUS 172354Z 17006KT 10SM CLR 34/22 A2997 RMK AO2 SLP136 T03390222 10356 20339 56011
KSUS 172254Z 20008KT 10SM FEW065 34/22 A2997 RMK AO2 SLP138 T03440217
KSUS 172154Z 21008KT 10SM CLR 35/22 A2999 RMK AO2 SLP146 T03500217